createdAt,value
2023-05-19T00:01:19.252Z,4.60
2023-05-19T00:03:46.906Z,4.80
2023-05-19T00:06:14.707Z,4.90
2023-05-19T00:08:42.504Z,4.50
2023-05-19T00:11:10.149Z,5.10
2023-05-19T00:13:37.796Z,5.20
2023-05-19T00:16:06.338Z,5.40
2023-05-19T00:18:34.814Z,4.90
2023-05-19T00:21:02.512Z,5.30
2023-05-19T00:23:30.154Z,5.10
2023-05-19T00:25:57.835Z,5.20
2023-05-19T00:28:25.588Z,6.10
2023-05-19T00:30:53.240Z,5.10
2023-05-19T00:33:21.020Z,5.20
2023-05-19T00:35:48.666Z,4.60
2023-05-19T00:38:16.340Z,5.10
2023-05-19T00:40:43.996Z,5.00
2023-05-19T00:43:11.661Z,4.90
2023-05-19T00:45:39.368Z,4.90
2023-05-19T00:48:07.091Z,5.40
2023-05-19T00:50:34.868Z,4.70
2023-05-19T00:53:02.829Z,5.10
2023-05-19T00:55:30.613Z,5.50
2023-05-19T00:57:58.290Z,5.00
2023-05-19T01:00:25.970Z,5.80
2023-05-19T01:02:54.554Z,5.10
2023-05-19T01:05:22.350Z,5.10
2023-05-19T01:07:53.797Z,5.30
2023-05-19T01:10:21.448Z,5.80
2023-05-19T01:12:49.136Z,4.70
2023-05-19T01:15:16.863Z,5.60
2023-05-19T01:17:45.121Z,5.90
2023-05-19T01:20:13.736Z,5.30
2023-05-19T01:22:43.141Z,6.10
2023-05-19T01:25:11.116Z,5.40
2023-05-19T01:27:38.765Z,6.00
2023-05-19T01:30:07.054Z,5.30
2023-05-19T01:32:34.744Z,5.60
2023-05-19T01:35:02.500Z,5.50
2023-05-19T01:37:30.153Z,4.70
2023-05-19T01:39:57.812Z,5.50
2023-05-19T01:42:25.442Z,5.70
2023-05-19T01:44:53.459Z,5.90
2023-05-19T01:47:21.124Z,6.10
2023-05-19T01:49:48.770Z,6.00
2023-05-19T01:52:16.465Z,5.70
2023-05-19T01:54:44.145Z,5.70
2023-05-19T01:57:11.908Z,5.50
2023-05-19T01:59:39.589Z,6.00
2023-05-19T02:02:07.234Z,5.80
2023-05-19T02:04:39.972Z,6.00
2023-05-19T02:07:07.815Z,7.10
2023-05-19T02:09:35.702Z,5.80
2023-05-19T02:12:03.348Z,6.80
2023-05-19T02:14:31.077Z,6.40
2023-05-19T02:16:59.504Z,6.00
2023-05-19T02:19:27.270Z,7.00
2023-05-19T02:21:55.113Z,5.80
2023-05-19T02:24:23.165Z,6.30
2023-05-19T02:26:51.969Z,6.90
2023-05-19T02:29:19.901Z,6.40
2023-05-19T02:31:47.702Z,5.90
2023-05-19T02:34:15.663Z,7.60
2023-05-19T02:36:43.431Z,6.90
2023-05-19T02:39:11.396Z,6.30
2023-05-19T02:41:39.162Z,7.40
2023-05-19T02:44:07.846Z,6.80
2023-05-19T02:46:35.626Z,6.60
2023-05-19T02:49:03.510Z,7.10
2023-05-19T02:51:31.348Z,7.20
2023-05-19T02:53:59.211Z,7.20
2023-05-19T02:56:28.330Z,6.80
2023-05-19T02:58:56.696Z,6.30
2023-05-19T03:01:24.465Z,7.90
2023-05-19T03:03:52.290Z,7.50
2023-05-19T03:06:20.190Z,8.30
2023-05-19T03:08:47.947Z,6.50
2023-05-19T03:11:15.709Z,7.00
2023-05-19T03:13:43.478Z,7.90
2023-05-19T03:16:12.229Z,7.40
2023-05-19T03:18:40.201Z,6.60
2023-05-19T03:21:08.012Z,7.00
2023-05-19T03:23:36.070Z,7.00
2023-05-19T03:26:04.493Z,9.10
2023-05-19T03:28:32.214Z,7.50
2023-05-19T03:30:59.982Z,7.40
2023-05-19T03:33:30.132Z,7.10
2023-05-19T03:35:57.970Z,6.60
2023-05-19T03:38:25.834Z,6.80
2023-05-19T03:40:54.112Z,7.60
2023-05-19T03:43:21.871Z,7.80
2023-05-19T03:45:49.657Z,7.70
2023-05-19T03:48:19.146Z,8.10
2023-05-19T03:50:49.779Z,8.10
2023-05-19T03:53:17.538Z,9.80
2023-05-19T03:55:45.916Z,8.80
2023-05-19T03:58:14.911Z,7.20
2023-05-19T04:00:42.875Z,8.60
2023-05-19T04:03:11.116Z,8.00
2023-05-19T04:05:39.024Z,8.70
2023-05-19T04:08:06.784Z,6.90
2023-05-19T04:10:34.689Z,7.60
2023-05-19T04:13:02.572Z,7.00
2023-05-19T04:15:30.430Z,7.40
2023-05-19T04:17:58.334Z,6.60
2023-05-19T04:20:26.129Z,7.80
2023-05-19T04:22:53.790Z,7.70
2023-05-19T04:25:21.448Z,7.90
2023-05-19T04:27:49.223Z,7.00
2023-05-19T04:30:22.561Z,7.10
2023-05-19T04:32:53.507Z,7.60
2023-05-19T04:35:21.186Z,9.20
2023-05-19T04:37:48.847Z,7.90
2023-05-19T04:40:17.595Z,7.40
2023-05-19T04:42:46.215Z,6.80
2023-05-19T04:45:14.333Z,7.50
2023-05-19T04:47:42.690Z,7.10
2023-05-19T04:50:11.389Z,6.90
2023-05-19T04:52:39.100Z,6.90
2023-05-19T04:55:06.768Z,6.60
2023-05-19T04:57:34.702Z,7.00
2023-05-19T05:00:02.409Z,6.20
2023-05-19T05:02:30.324Z,5.90
2023-05-19T05:04:58.364Z,6.50
2023-05-19T05:07:26.128Z,6.40
2023-05-19T05:09:53.904Z,6.50
2023-05-19T05:12:21.767Z,6.80
2023-05-19T05:14:49.528Z,6.10
2023-05-19T05:17:17.285Z,5.70
2023-05-19T05:19:45.051Z,6.50
2023-05-19T05:22:12.824Z,6.50
2023-05-19T05:24:40.579Z,5.90
2023-05-19T05:27:10.483Z,6.50
2023-05-19T05:29:38.369Z,7.00
2023-05-19T05:32:06.351Z,7.00
2023-05-19T05:34:34.091Z,6.60
2023-05-19T05:37:01.758Z,5.40
2023-05-19T05:39:29.743Z,5.10
2023-05-19T05:41:57.437Z,6.30
2023-05-19T05:44:25.069Z,5.60
2023-05-19T05:46:52.728Z,5.80
2023-05-19T05:49:20.565Z,5.80
2023-05-19T05:52:01.499Z,4.90
2023-05-19T05:54:33.189Z,5.50
2023-05-19T05:57:00.874Z,5.10
2023-05-19T05:59:28.525Z,5.10
2023-05-19T06:01:56.205Z,4.60
2023-05-19T06:04:23.897Z,6.20
2023-05-19T06:06:52.877Z,4.80
2023-05-19T06:09:20.853Z,4.00
2023-05-19T06:11:48.558Z,4.30
2023-05-19T06:14:16.448Z,4.40
2023-05-19T06:16:44.187Z,4.40
2023-05-19T06:19:12.218Z,4.80
2023-05-19T06:21:40.047Z,4.70
2023-05-19T06:24:07.786Z,4.30
2023-05-19T06:26:35.509Z,4.30
2023-05-19T06:29:03.276Z,4.50
2023-05-19T06:31:31.578Z,4.10
2023-05-19T06:33:59.252Z,4.10
2023-05-19T06:36:27.052Z,4.50
2023-05-19T06:38:54.909Z,3.80
2023-05-19T06:41:22.675Z,3.80
2023-05-19T06:43:50.540Z,4.60
2023-05-19T06:46:18.480Z,4.90
2023-05-19T06:48:46.378Z,4.00
2023-05-19T06:51:15.688Z,5.70
2023-05-19T06:53:43.442Z,5.70
2023-05-19T06:56:11.209Z,5.30
2023-05-19T06:58:39.787Z,5.60
2023-05-19T07:01:07.560Z,4.90
2023-05-19T07:03:35.682Z,5.20
2023-05-19T07:06:05.055Z,6.00
2023-05-19T07:08:35.454Z,6.00
2023-05-19T07:11:03.220Z,6.50
2023-05-19T07:13:31.288Z,9.10
2023-05-19T07:15:59.069Z,8.80
2023-05-19T07:18:27.229Z,7.40
2023-05-19T07:20:54.997Z,6.50
2023-05-19T07:23:22.854Z,8.00
2023-05-19T07:25:50.830Z,7.70
2023-05-19T07:28:18.590Z,8.50
2023-05-19T07:30:46.377Z,7.50
2023-05-19T07:33:14.204Z,7.50
2023-05-19T07:35:42.098Z,7.70
2023-05-19T07:38:09.850Z,8.70
2023-05-19T07:40:37.685Z,8.70
2023-05-19T07:43:05.984Z,7.60
2023-05-19T07:45:33.880Z,7.40
2023-05-19T07:48:01.755Z,8.00
2023-05-19T07:50:29.633Z,7.50
2023-05-19T07:52:57.562Z,7.30
2023-05-19T07:55:25.329Z,7.60
2023-05-19T07:57:53.088Z,8.80
2023-05-19T08:00:20.955Z,8.60
2023-05-19T08:02:48.855Z,10.40
2023-05-19T08:05:16.692Z,9.10
2023-05-19T08:07:44.571Z,8.80
2023-05-19T08:10:12.530Z,5.90
2023-05-19T08:12:40.305Z,6.20
2023-05-19T08:15:08.261Z,5.70
2023-05-19T08:17:36.037Z,6.10
2023-05-19T08:20:05.360Z,5.90
2023-05-19T08:22:33.202Z,5.50
2023-05-19T08:25:01.671Z,5.10
2023-05-19T08:27:30.258Z,5.30
2023-05-19T08:29:58.227Z,5.50
2023-05-19T08:32:26.274Z,5.70
2023-05-19T08:34:54.269Z,5.10
2023-05-19T08:37:22.233Z,5.70
2023-05-19T08:39:50.108Z,6.40
2023-05-19T08:42:17.868Z,5.90
2023-05-19T08:44:45.645Z,5.20
2023-05-19T08:47:14.109Z,5.80
2023-05-19T08:49:41.876Z,5.20
2023-05-19T08:52:09.742Z,6.00
2023-05-19T08:54:37.515Z,5.70
2023-05-19T08:57:06.202Z,4.90
2023-05-19T08:59:34.058Z,5.70
2023-05-19T09:02:01.829Z,5.90
2023-05-19T09:04:30.327Z,5.70
2023-05-19T09:06:59.090Z,6.20
2023-05-19T09:09:26.958Z,5.30
2023-05-19T09:11:54.722Z,4.90
2023-05-19T09:14:22.485Z,4.90
2023-05-19T09:16:53.001Z,5.00
2023-05-19T09:19:21.555Z,5.30
2023-05-19T09:21:50.216Z,7.10
2023-05-19T09:24:17.975Z,5.00
2023-05-19T09:26:45.820Z,4.80
2023-05-19T09:29:13.542Z,4.90
2023-05-19T09:31:41.593Z,5.80
2023-05-19T09:34:09.387Z,5.70
2023-05-19T09:36:37.593Z,6.30
2023-05-19T09:39:05.330Z,5.70
2023-05-19T09:41:33.152Z,5.50
2023-05-19T09:44:00.845Z,6.00
2023-05-19T09:46:28.660Z,5.60
2023-05-19T09:48:56.836Z,5.80
2023-05-19T09:51:24.787Z,6.70
2023-05-19T09:53:52.572Z,6.30
2023-05-19T09:56:23.915Z,6.30
2023-05-19T09:58:51.666Z,7.00
2023-05-19T10:01:19.389Z,6.50
2023-05-19T10:03:47.620Z,6.60
2023-05-19T10:06:15.770Z,6.90
2023-05-19T10:08:43.776Z,7.20
2023-05-19T10:11:11.524Z,6.70
2023-05-19T10:13:39.379Z,6.20
2023-05-19T10:16:07.127Z,7.80
2023-05-19T10:18:34.845Z,7.30
2023-05-19T10:21:02.991Z,7.70
2023-05-19T10:23:30.731Z,7.00
2023-05-19T10:25:58.504Z,7.70
2023-05-19T10:28:28.281Z,7.20
2023-05-19T10:30:56.289Z,7.30
2023-05-19T10:33:24.090Z,7.30
2023-05-19T10:35:52.025Z,7.00
2023-05-19T10:38:19.881Z,6.70
2023-05-19T10:40:47.645Z,7.10
2023-05-19T10:43:15.414Z,8.30
2023-05-19T10:45:43.296Z,6.40
2023-05-19T10:48:13.510Z,6.80
2023-05-19T10:50:41.266Z,7.60
2023-05-19T10:53:09.041Z,8.10
2023-05-19T10:55:37.419Z,7.60
2023-05-19T10:58:05.386Z,8.10
2023-05-19T11:00:33.266Z,7.80
2023-05-19T11:03:01.034Z,8.50
2023-05-19T11:05:28.879Z,7.80
2023-05-19T11:07:56.639Z,7.00
2023-05-19T11:10:24.410Z,7.10
2023-05-19T11:12:52.412Z,6.70
2023-05-19T11:15:20.240Z,8.30
2023-05-19T11:17:48.802Z,8.10
2023-05-19T11:20:16.595Z,6.80
2023-05-19T11:22:44.352Z,7.10
2023-05-19T11:25:12.129Z,8.30
2023-05-19T11:27:40.388Z,6.60
2023-05-19T11:30:09.616Z,6.50
2023-05-19T11:32:42.414Z,6.80
2023-05-19T11:35:10.445Z,7.00
2023-05-19T11:37:38.312Z,8.10
2023-05-19T11:40:09.292Z,7.80
2023-05-19T11:42:37.303Z,8.30
2023-05-19T11:45:05.151Z,8.90
2023-05-19T11:47:46.473Z,7.70
2023-05-19T11:50:23.437Z,7.30
2023-05-19T11:52:51.188Z,8.10
2023-05-19T11:55:18.855Z,8.20
2023-05-19T11:57:56.065Z,7.80
2023-05-19T12:00:31.506Z,8.80
2023-05-19T12:02:59.486Z,8.50
2023-05-19T12:05:29.084Z,9.10
2023-05-19T12:07:56.819Z,8.40
2023-05-19T12:10:24.565Z,8.60
2023-05-19T12:12:52.231Z,8.30
2023-05-19T12:15:21.185Z,8.70
2023-05-19T12:17:48.879Z,9.60
2023-05-19T12:20:16.638Z,9.90
2023-05-19T12:22:44.357Z,9.00
2023-05-19T12:25:11.996Z,8.90
2023-05-19T12:27:39.625Z,9.70
2023-05-19T12:30:07.404Z,9.50
2023-05-19T12:32:38.043Z,8.70
2023-05-19T12:35:06.062Z,9.10
2023-05-19T12:37:35.031Z,7.70
2023-05-19T12:40:03.843Z,8.90
2023-05-19T12:42:31.789Z,8.90
2023-05-19T12:45:00.702Z,8.80
2023-05-19T12:47:29.610Z,10.00
2023-05-19T12:49:57.303Z,9.60
2023-05-19T12:52:25.027Z,8.80
2023-05-19T12:54:53.249Z,9.10
2023-05-19T12:57:21.670Z,10.60
2023-05-19T12:59:49.926Z,9.30
2023-05-19T13:02:18.388Z,8.90
2023-05-19T13:04:46.222Z,10.90
2023-05-19T13:07:13.874Z,8.80
2023-05-19T13:09:41.582Z,9.00
2023-05-19T13:12:09.218Z,9.30
2023-05-19T13:14:37.871Z,9.50
2023-05-19T13:17:06.293Z,9.70
2023-05-19T13:19:34.244Z,9.60
2023-05-19T13:22:02.577Z,10.30
2023-05-19T13:24:30.845Z,9.60
2023-05-19T13:26:58.714Z,10.30
2023-05-19T13:29:28.344Z,10.50
2023-05-19T13:31:56.214Z,10.10
2023-05-19T13:34:23.998Z,10.40
2023-05-19T13:36:51.733Z,10.60
2023-05-19T13:39:19.411Z,10.80
2023-05-19T13:41:47.075Z,12.00
2023-05-19T13:44:14.836Z,10.90
2023-05-19T13:46:45.577Z,10.40
2023-05-19T13:49:14.632Z,11.10
2023-05-19T13:51:42.323Z,9.90
2023-05-19T13:54:10.270Z,10.10
2023-05-19T13:56:38.257Z,11.10
2023-05-19T13:59:05.901Z,8.90
2023-05-19T14:01:33.782Z,11.60
2023-05-19T14:04:01.658Z,11.50
2023-05-19T14:06:29.772Z,12.60
2023-05-19T14:08:57.473Z,10.80
2023-05-19T14:11:25.183Z,10.50
2023-05-19T14:13:53.272Z,10.80
2023-05-19T14:16:23.148Z,13.70
2023-05-19T14:18:51.007Z,15.00
2023-05-19T14:21:18.691Z,16.20
2023-05-19T14:23:46.533Z,15.60
2023-05-19T14:26:14.166Z,16.60
2023-05-19T14:28:41.846Z,15.90
2023-05-19T14:31:09.538Z,13.10
2023-05-19T14:33:37.223Z,12.30
2023-05-19T14:36:05.672Z,11.90
2023-05-19T14:38:33.365Z,12.10
2023-05-19T14:41:01.083Z,11.90
2023-05-19T14:43:28.764Z,13.60
2023-05-19T14:45:56.496Z,12.50
2023-05-19T14:48:24.145Z,12.70
2023-05-19T14:50:52.113Z,11.60
2023-05-19T14:53:19.797Z,25.50
2023-05-19T14:55:47.418Z,11.10
2023-05-19T14:58:27.636Z,10.10
2023-05-19T15:00:56.438Z,10.00
2023-05-19T15:03:24.118Z,11.10
2023-05-19T15:05:51.919Z,10.70
2023-05-19T15:08:19.589Z,11.70
2023-05-19T15:10:47.395Z,12.30
2023-05-19T15:13:15.199Z,12.20
2023-05-19T15:15:42.973Z,12.90
2023-05-19T15:18:11.688Z,11.30
2023-05-19T15:20:39.527Z,12.70
2023-05-19T15:23:07.282Z,13.40
2023-05-19T15:25:35.047Z,12.10
2023-05-19T15:28:02.816Z,12.60
2023-05-19T15:30:30.678Z,12.90
2023-05-19T15:32:58.998Z,12.50
2023-05-19T15:35:26.922Z,13.20
2023-05-19T15:37:54.693Z,13.80
2023-05-19T15:40:22.575Z,13.80
2023-05-19T15:42:50.323Z,12.80
2023-05-19T15:45:18.136Z,14.00
2023-05-19T15:47:46.033Z,14.30
2023-05-19T15:50:14.835Z,14.70
2023-05-19T15:52:43.376Z,15.80
2023-05-19T15:55:11.125Z,15.60
2023-05-19T15:57:38.828Z,14.50
2023-05-19T16:00:06.509Z,13.30
2023-05-19T16:02:34.487Z,12.90
2023-05-19T16:05:02.197Z,14.10
2023-05-19T16:07:29.874Z,14.90
2023-05-19T16:09:57.807Z,15.20
2023-05-19T16:12:27.592Z,12.80
2023-05-19T16:14:55.586Z,14.30
2023-05-19T16:17:23.228Z,14.90
2023-05-19T16:19:50.890Z,14.20
2023-05-19T16:22:18.673Z,13.60
2023-05-19T16:24:46.324Z,14.50
2023-05-19T16:27:14.172Z,13.80
2023-05-19T16:29:41.940Z,15.40
2023-05-19T16:32:09.809Z,29.50
2023-05-19T16:34:37.773Z,20.50
2023-05-19T16:37:05.540Z,59.00
2023-05-19T16:39:33.405Z,55.90
2023-05-19T16:42:01.115Z,35.90
2023-05-19T16:44:28.932Z,16.40
2023-05-19T16:46:56.905Z,14.30
2023-05-19T16:49:24.670Z,13.70
2023-05-19T16:51:53.301Z,15.80
2023-05-19T16:54:21.627Z,25.70
2023-05-19T16:56:49.387Z,17.90
2023-05-19T16:59:17.669Z,19.00
2023-05-19T17:01:45.711Z,33.40
2023-05-19T17:04:13.609Z,31.80
2023-05-19T17:06:41.377Z,26.30
2023-05-19T17:09:09.131Z,24.70
2023-05-19T17:11:36.907Z,17.80
2023-05-19T17:14:08.042Z,13.90
2023-05-19T17:16:36.096Z,13.20
2023-05-19T17:19:04.124Z,12.70
2023-05-19T17:21:32.151Z,14.10
2023-05-19T17:23:59.917Z,13.20
2023-05-19T17:26:27.984Z,12.80
2023-05-19T17:28:55.852Z,14.20
2023-05-19T17:31:23.623Z,15.90
2023-05-19T17:33:51.381Z,15.80
2023-05-19T17:36:19.148Z,15.50
2023-05-19T17:38:47.011Z,15.40
2023-05-19T17:41:14.784Z,14.10
2023-05-19T17:43:42.641Z,14.10
2023-05-19T17:46:10.475Z,13.50
2023-05-19T17:48:38.280Z,15.00
2023-05-19T17:51:07.833Z,16.60
2023-05-19T17:53:35.763Z,15.00
2023-05-19T17:56:03.617Z,16.20
2023-05-19T17:58:31.598Z,15.10
2023-05-19T18:00:59.353Z,15.40
2023-05-19T18:03:27.365Z,14.90
2023-05-19T18:05:55.387Z,15.50
2023-05-19T18:08:23.174Z,14.30
2023-05-19T18:10:52.884Z,15.20
2023-05-19T18:13:21.648Z,15.50
2023-05-19T18:15:50.063Z,20.90
2023-05-19T18:18:17.904Z,20.20
2023-05-19T18:20:46.069Z,20.90
2023-05-19T18:23:13.934Z,20.80
2023-05-19T18:25:41.707Z,21.20
2023-05-19T18:28:09.430Z,20.60
2023-05-19T18:30:37.226Z,20.20
2023-05-19T18:33:06.235Z,19.80
2023-05-19T18:35:34.096Z,21.50
2023-05-19T18:38:02.081Z,20.30
2023-05-19T18:40:29.814Z,19.70
2023-05-19T18:42:57.479Z,21.80
2023-05-19T18:45:25.118Z,20.40
2023-05-19T18:47:53.185Z,18.70
2023-05-19T18:50:20.905Z,21.10
2023-05-19T18:52:48.613Z,22.30
2023-05-19T18:55:16.500Z,18.60
2023-05-19T18:57:44.152Z,19.10
2023-05-19T19:00:11.875Z,18.40
2023-05-19T19:02:39.936Z,18.00
2023-05-19T19:05:09.717Z,17.60
2023-05-19T19:07:37.426Z,17.90
2023-05-19T19:10:05.084Z,17.10
2023-05-19T19:12:32.759Z,18.70
2023-05-19T19:15:00.424Z,18.40
2023-05-19T19:17:28.140Z,18.80
2023-05-19T19:19:56.154Z,19.70
2023-05-19T19:22:23.993Z,22.10
2023-05-19T19:24:51.695Z,23.20
2023-05-19T19:27:21.059Z,33.00
2023-05-19T19:29:48.758Z,30.80
2023-05-19T19:32:16.537Z,40.10
2023-05-19T19:34:44.188Z,47.80
2023-05-19T19:37:11.943Z,35.70
2023-05-19T19:39:39.650Z,24.90
2023-05-19T19:42:07.306Z,25.60
2023-05-19T19:44:34.990Z,24.30
2023-05-19T19:47:06.423Z,24.60
2023-05-19T19:49:34.180Z,27.10
2023-05-19T19:52:02.058Z,24.30
2023-05-19T19:54:29.812Z,23.40
2023-05-19T19:56:58.802Z,26.20
2023-05-19T19:59:26.956Z,25.30
2023-05-19T20:01:55.006Z,27.60
2023-05-19T20:04:23.128Z,21.80
2023-05-19T20:06:51.124Z,21.00
2023-05-19T20:09:18.931Z,18.80
2023-05-19T20:11:46.722Z,18.40
2023-05-19T20:14:14.494Z,17.20
2023-05-19T20:16:42.448Z,17.50
2023-05-19T20:19:12.071Z,17.70
2023-05-19T20:21:39.831Z,18.90
2023-05-19T20:24:07.797Z,18.40
2023-05-19T20:26:35.560Z,17.70
2023-05-19T20:29:03.325Z,18.10
2023-05-19T20:31:31.301Z,16.10
2023-05-19T20:34:00.151Z,18.80
2023-05-19T20:36:29.586Z,18.20
2023-05-19T20:38:57.459Z,17.90
2023-05-19T20:41:25.216Z,17.70
2023-05-19T20:43:53.287Z,18.70
2023-05-19T20:46:21.672Z,16.90
2023-05-19T20:48:49.536Z,16.10
2023-05-19T20:51:17.165Z,16.90
2023-05-19T20:53:44.823Z,16.30
2023-05-19T20:56:12.530Z,16.10
2023-05-19T20:58:40.394Z,16.10
2023-05-19T21:01:08.167Z,17.00
2023-05-19T21:03:36.224Z,17.10
2023-05-19T21:06:04.098Z,16.60
2023-05-19T21:08:31.854Z,17.80
2023-05-19T21:11:01.074Z,16.60
2023-05-19T21:13:28.922Z,16.90
2023-05-19T21:15:56.688Z,17.00
2023-05-19T21:18:24.556Z,16.80
2023-05-19T21:20:52.318Z,17.40
2023-05-19T21:23:20.201Z,18.30
2023-05-19T21:25:47.946Z,17.10
2023-05-19T21:28:15.915Z,16.90
2023-05-19T21:30:44.609Z,19.00
2023-05-19T21:33:12.518Z,17.90
2023-05-19T21:35:40.331Z,19.10
2023-05-19T21:38:22.190Z,17.00
2023-05-19T21:40:51.012Z,17.80
2023-05-19T21:43:19.562Z,17.90
2023-05-19T21:45:47.257Z,17.90
2023-05-19T21:48:14.985Z,17.70
2023-05-19T21:50:42.643Z,17.80
2023-05-19T21:53:10.315Z,16.70
2023-05-19T21:55:39.393Z,16.70
2023-05-19T21:58:07.121Z,17.30
2023-05-19T22:00:36.857Z,16.50
2023-05-19T22:03:04.936Z,16.60
2023-05-19T22:05:35.371Z,18.20
2023-05-19T22:08:03.120Z,17.90
2023-05-19T22:10:30.826Z,17.10
2023-05-19T22:12:58.589Z,18.60
2023-05-19T22:15:26.892Z,18.10
2023-05-19T22:17:54.628Z,18.30
2023-05-19T22:20:22.338Z,19.00
2023-05-19T22:22:50.003Z,19.10
2023-05-19T22:25:17.647Z,16.80
2023-05-19T22:27:45.325Z,16.70
2023-05-19T22:30:13.058Z,18.50
2023-05-19T22:32:40.721Z,18.20
2023-05-19T22:35:08.555Z,17.60
2023-05-19T22:37:36.231Z,17.20
2023-05-19T22:40:03.910Z,17.40
2023-05-19T22:42:31.572Z,19.00
2023-05-19T22:44:59.301Z,17.70
2023-05-19T22:47:26.964Z,20.30
2023-05-19T22:49:55.665Z,20.40
2023-05-19T22:52:24.842Z,18.20
2023-05-19T22:54:52.492Z,20.00
2023-05-19T22:57:20.311Z,20.10
2023-05-19T22:59:47.957Z,20.90
2023-05-19T23:02:15.933Z,20.00
2023-05-19T23:04:43.620Z,19.80
2023-05-19T23:07:11.297Z,19.50
2023-05-19T23:09:39.325Z,18.30
2023-05-19T23:12:07.161Z,18.40
2023-05-19T23:14:34.853Z,17.80
2023-05-19T23:17:02.620Z,18.60
2023-05-19T23:19:32.046Z,18.00
2023-05-19T23:21:59.728Z,17.80
2023-05-19T23:24:27.442Z,17.90
2023-05-19T23:26:55.152Z,18.80
2023-05-19T23:29:22.923Z,19.30
2023-05-19T23:31:50.639Z,18.70
2023-05-19T23:34:18.386Z,16.80
2023-05-19T23:36:46.046Z,18.10
2023-05-19T23:39:13.740Z,17.80
2023-05-19T23:41:41.516Z,19.00
2023-05-19T23:44:09.393Z,17.70
2023-05-19T23:46:37.093Z,18.40
2023-05-19T23:49:04.836Z,18.20
2023-05-19T23:51:32.560Z,18.40
2023-05-19T23:54:00.269Z,19.10
2023-05-19T23:56:27.940Z,16.70
2023-05-19T23:58:55.588Z,17.10
